sensor_id;sensor_type;location;lat;lon;timestamp;temperature;humidity
13616;DHT22;6879;51.368;6.782;2023-03-14T00:00:13;11.60;99.90
13616;DHT22;6879;51.368;6.782;2023-03-14T00:02:42;11.60;99.90
13616;DHT22;6879;51.368;6.782;2023-03-14T00:05:11;11.60;99.90
13616;DHT22;6879;51.368;6.782;2023-03-14T00:07:40;11.60;99.90
13616;DHT22;6879;51.368;6.782;2023-03-14T00:10:10;11.60;99.90
13616;DHT22;6879;51.368;6.782;2023-03-14T00:12:39;11.60;99.90
13616;DHT22;6879;51.368;6.782;2023-03-14T00:15:10;11.60;99.90
13616;DHT22;6879;51.368;6.782;2023-03-14T00:17:40;11.60;99.90
13616;DHT22;6879;51.368;6.782;2023-03-14T00:20:11;11.60;99.90
13616;DHT22;6879;51.368;6.782;2023-03-14T00:22:40;11.60;99.90
13616;DHT22;6879;51.368;6.782;2023-03-14T00:25:10;11.70;99.90
13616;DHT22;6879;51.368;6.782;2023-03-14T00:27:39;11.70;99.90
13616;DHT22;6879;51.368;6.782;2023-03-14T00:30:10;11.70;99.90
13616;DHT22;6879;51.368;6.782;2023-03-14T00:32:39;11.80;99.90
13616;DHT22;6879;51.368;6.782;2023-03-14T00:35:09;11.80;99.90
13616;DHT22;6879;51.368;6.782;2023-03-14T00:37:37;11.40;99.90
13616;DHT22;6879;51.368;6.782;2023-03-14T00:40:08;11.00;99.90
13616;DHT22;6879;51.368;6.782;2023-03-14T00:42:36;10.60;99.90
13616;DHT22;6879;51.368;6.782;2023-03-14T00:45:06;10.40;99.90
13616;DHT22;6879;51.368;6.782;2023-03-14T00:47:37;10.20;99.90
13616;DHT22;6879;51.368;6.782;2023-03-14T00:50:08;10.10;99.90
13616;DHT22;6879;51.368;6.782;2023-03-14T00:52:38;9.90;99.90
13616;DHT22;6879;51.368;6.782;2023-03-14T00:55:08;9.80;99.90
13616;DHT22;6879;51.368;6.782;2023-03-14T00:57:37;9.80;99.90
13616;DHT22;6879;51.368;6.782;2023-03-14T01:00:07;9.70;99.90
13616;DHT22;6879;51.368;6.782;2023-03-14T01:02:40;9.70;99.90
13616;DHT22;6879;51.368;6.782;2023-03-14T01:05:09;9.70;99.90
13616;DHT22;6879;51.368;6.782;2023-03-14T01:07:38;9.70;99.90
13616;DHT22;6879;51.368;6.782;2023-03-14T01:10:08;9.70;99.90
13616;DHT22;6879;51.368;6.782;2023-03-14T01:12:37;9.60;99.90
13616;DHT22;6879;51.368;6.782;2023-03-14T01:15:06;9.70;99.90
13616;DHT22;6879;51.368;6.782;2023-03-14T01:17:35;9.70;99.90
13616;DHT22;6879;51.368;6.782;2023-03-14T01:20:08;9.80;99.90
13616;DHT22;6879;51.368;6.782;2023-03-14T01:22:38;9.80;99.90
13616;DHT22;6879;51.368;6.782;2023-03-14T01:25:09;9.80;99.90
13616;DHT22;6879;51.368;6.782;2023-03-14T01:27:37;9.80;99.90
13616;DHT22;6879;51.368;6.782;2023-03-14T01:30:07;9.80;99.90
13616;DHT22;6879;51.368;6.782;2023-03-14T01:32:36;9.80;99.90
13616;DHT22;6879;51.368;6.782;2023-03-14T01:35:07;9.70;99.90
13616;DHT22;6879;51.368;6.782;2023-03-14T01:37:35;9.70;99.90
13616;DHT22;6879;51.368;6.782;2023-03-14T01:40:09;9.60;99.90
13616;DHT22;6879;51.368;6.782;2023-03-14T01:42:39;9.60;99.90
13616;DHT22;6879;51.368;6.782;2023-03-14T01:48:14;9.60;99.90
13616;DHT22;6879;51.368;6.782;2023-03-14T01:50:44;9.60;99.90
13616;DHT22;6879;51.368;6.782;2023-03-14T01:53:13;9.60;99.90
13616;DHT22;6879;51.368;6.782;2023-03-14T01:55:42;9.60;99.90
13616;DHT22;6879;51.368;6.782;2023-03-14T01:58:11;9.60;99.90
13616;DHT22;6879;51.368;6.782;2023-03-14T02:00:39;9.60;99.90
13616;DHT22;6879;51.368;6.782;2023-03-14T02:03:11;9.60;99.90
13616;DHT22;6879;51.368;6.782;2023-03-14T02:05:44;9.60;99.90
13616;DHT22;6879;51.368;6.782;2023-03-14T02:08:22;9.70;99.90
13616;DHT22;6879;51.368;6.782;2023-03-14T02:10:59;9.70;99.90
13616;DHT22;6879;51.368;6.782;2023-03-14T02:13:54;9.80;99.90
13616;DHT22;6879;51.368;6.782;2023-03-14T02:16:32;9.80;99.90
13616;DHT22;6879;51.368;6.782;2023-03-14T02:19:33;9.90;99.90
13616;DHT22;6879;51.368;6.782;2023-03-14T02:22:21;9.90;99.90
13616;DHT22;6879;51.368;6.782;2023-03-14T02:25:01;10.00;99.90
13616;DHT22;6879;51.368;6.782;2023-03-14T02:27:34;10.00;99.90
13616;DHT22;6879;51.368;6.782;2023-03-14T02:30:06;10.00;99.90
13616;DHT22;6879;51.368;6.782;2023-03-14T02:32:43;10.00;99.90
13616;DHT22;6879;51.368;6.782;2023-03-14T02:35:17;10.10;99.90
13616;DHT22;6879;51.368;6.782;2023-03-14T02:37:51;10.10;99.90
13616;DHT22;6879;51.368;6.782;2023-03-14T02:40:23;10.10;99.90
13616;DHT22;6879;51.368;6.782;2023-03-14T02:42:54;10.10;99.90
13616;DHT22;6879;51.368;6.782;2023-03-14T02:45:34;10.10;99.90
13616;DHT22;6879;51.368;6.782;2023-03-14T02:48:06;10.10;99.90
13616;DHT22;6879;51.368;6.782;2023-03-14T02:50:37;10.10;99.90
13616;DHT22;6879;51.368;6.782;2023-03-14T02:53:06;10.20;99.90
13616;DHT22;6879;51.368;6.782;2023-03-14T02:55:35;10.10;99.90
13616;DHT22;6879;51.368;6.782;2023-03-14T02:58:11;10.10;99.90
13616;DHT22;6879;51.368;6.782;2023-03-14T03:00:41;10.10;99.90
13616;DHT22;6879;51.368;6.782;2023-03-14T03:03:11;10.10;99.90
13616;DHT22;6879;51.368;6.782;2023-03-14T03:05:40;10.20;99.90
13616;DHT22;6879;51.368;6.782;2023-03-14T03:08:10;10.20;99.90
13616;DHT22;6879;51.368;6.782;2023-03-14T03:10:40;10.20;99.90
13616;DHT22;6879;51.368;6.782;2023-03-14T03:13:08;10.20;99.90
13616;DHT22;6879;51.368;6.782;2023-03-14T03:15:38;10.20;99.90
13616;DHT22;6879;51.368;6.782;2023-03-14T03:18:08;10.20;99.90
13616;DHT22;6879;51.368;6.782;2023-03-14T03:20:37;10.20;99.90
13616;DHT22;6879;51.368;6.782;2023-03-14T03:23:05;10.20;99.90
13616;DHT22;6879;51.368;6.782;2023-03-14T03:25:37;10.20;99.90
13616;DHT22;6879;51.368;6.782;2023-03-14T03:28:06;10.20;99.90
13616;DHT22;6879;51.368;6.782;2023-03-14T03:30:40;10.30;99.90
13616;DHT22;6879;51.368;6.782;2023-03-14T03:33:10;10.30;99.90
13616;DHT22;6879;51.368;6.782;2023-03-14T03:35:44;10.30;99.90
13616;DHT22;6879;51.368;6.782;2023-03-14T03:38:14;10.10;99.90
13616;DHT22;6879;51.368;6.782;2023-03-14T03:40:45;9.90;99.90
13616;DHT22;6879;51.368;6.782;2023-03-14T03:43:14;9.90;99.90
13616;DHT22;6879;51.368;6.782;2023-03-14T03:45:46;9.80;99.90
13616;DHT22;6879;51.368;6.782;2023-03-14T03:48:15;9.80;99.90
13616;DHT22;6879;51.368;6.782;2023-03-14T03:50:47;9.70;99.90
13616;DHT22;6879;51.368;6.782;2023-03-14T03:53:19;9.70;99.90
13616;DHT22;6879;51.368;6.782;2023-03-14T03:56:02;9.70;99.90
13616;DHT22;6879;51.368;6.782;2023-03-14T03:58:32;9.70;99.90
13616;DHT22;6879;51.368;6.782;2023-03-14T04:01:04;9.80;99.90
13616;DHT22;6879;51.368;6.782;2023-03-14T04:03:33;9.80;99.90
13616;DHT22;6879;51.368;6.782;2023-03-14T04:06:03;9.80;99.90
13616;DHT22;6879;51.368;6.782;2023-03-14T04:08:34;9.80;99.90
13616;DHT22;6879;51.368;6.782;2023-03-14T04:11:04;9.70;99.90
13616;DHT22;6879;51.368;6.782;2023-03-14T04:13:52;9.60;99.90
13616;DHT22;6879;51.368;6.782;2023-03-14T04:16:24;9.40;99.90
13616;DHT22;6879;51.368;6.782;2023-03-14T04:19:00;9.40;99.90
13616;DHT22;6879;51.368;6.782;2023-03-14T04:21:30;9.20;99.90
13616;DHT22;6879;51.368;6.782;2023-03-14T04:23:59;9.10;99.90
13616;DHT22;6879;51.368;6.782;2023-03-14T04:26:31;9.10;99.90
13616;DHT22;6879;51.368;6.782;2023-03-14T04:28:59;9.00;99.90
13616;DHT22;6879;51.368;6.782;2023-03-14T04:31:30;9.00;99.90
13616;DHT22;6879;51.368;6.782;2023-03-14T04:33:59;8.90;99.90
13616;DHT22;6879;51.368;6.782;2023-03-14T04:36:35;8.90;99.90
13616;DHT22;6879;51.368;6.782;2023-03-14T04:39:09;8.80;99.90
13616;DHT22;6879;51.368;6.782;2023-03-14T04:41:44;8.80;99.90
13616;DHT22;6879;51.368;6.782;2023-03-14T04:44:12;8.70;99.90
13616;DHT22;6879;51.368;6.782;2023-03-14T04:46:43;8.70;99.90
13616;DHT22;6879;51.368;6.782;2023-03-14T04:49:12;8.60;99.90
13616;DHT22;6879;51.368;6.782;2023-03-14T04:51:41;8.70;99.90
13616;DHT22;6879;51.368;6.782;2023-03-14T04:54:11;8.70;99.90
13616;DHT22;6879;51.368;6.782;2023-03-14T04:56:40;8.70;99.90
13616;DHT22;6879;51.368;6.782;2023-03-14T04:59:08;8.70;99.90
13616;DHT22;6879;51.368;6.782;2023-03-14T05:01:39;8.70;99.90
13616;DHT22;6879;51.368;6.782;2023-03-14T05:04:28;8.70;99.90
13616;DHT22;6879;51.368;6.782;2023-03-14T05:07:21;8.70;99.90
13616;DHT22;6879;51.368;6.782;2023-03-14T05:10:00;8.70;99.90
13616;DHT22;6879;51.368;6.782;2023-03-14T05:13:00;8.70;99.90
13616;DHT22;6879;51.368;6.782;2023-03-14T05:16:04;8.70;99.90
13616;DHT22;6879;51.368;6.782;2023-03-14T05:19:02;8.70;99.90
13616;DHT22;6879;51.368;6.782;2023-03-14T05:21:46;8.70;99.90
13616;DHT22;6879;51.368;6.782;2023-03-14T05:24:34;8.70;99.90
13616;DHT22;6879;51.368;6.782;2023-03-14T05:27:26;8.70;99.90
13616;DHT22;6879;51.368;6.782;2023-03-14T05:30:20;8.70;99.90
13616;DHT22;6879;51.368;6.782;2023-03-14T05:33:13;8.80;99.90
13616;DHT22;6879;51.368;6.782;2023-03-14T05:36:00;8.80;99.90
13616;DHT22;6879;51.368;6.782;2023-03-14T05:38:49;8.80;99.90
13616;DHT22;6879;51.368;6.782;2023-03-14T05:41:36;8.70;99.90
13616;DHT22;6879;51.368;6.782;2023-03-14T05:44:31;8.70;99.90
13616;DHT22;6879;51.368;6.782;2023-03-14T05:47:20;8.70;99.90
13616;DHT22;6879;51.368;6.782;2023-03-14T05:50:15;8.80;99.90
13616;DHT22;6879;51.368;6.782;2023-03-14T05:53:02;8.80;99.90
13616;DHT22;6879;51.368;6.782;2023-03-14T05:55:45;8.80;99.90
13616;DHT22;6879;51.368;6.782;2023-03-14T05:58:37;8.90;99.90
13616;DHT22;6879;51.368;6.782;2023-03-14T06:01:18;8.90;99.90
13616;DHT22;6879;51.368;6.782;2023-03-14T06:04:06;8.90;99.90
13616;DHT22;6879;51.368;6.782;2023-03-14T06:06:34;9.00;99.90
13616;DHT22;6879;51.368;6.782;2023-03-14T06:09:04;9.00;99.90
13616;DHT22;6879;51.368;6.782;2023-03-14T06:11:37;9.10;99.90
13616;DHT22;6879;51.368;6.782;2023-03-14T06:14:07;9.20;99.90
13616;DHT22;6879;51.368;6.782;2023-03-14T06:16:38;9.20;99.90
13616;DHT22;6879;51.368;6.782;2023-03-14T06:19:10;9.30;99.90
13616;DHT22;6879;51.368;6.782;2023-03-14T06:21:41;9.30;99.90
13616;DHT22;6879;51.368;6.782;2023-03-14T06:24:10;9.40;99.90
13616;DHT22;6879;51.368;6.782;2023-03-14T06:26:45;9.40;99.90
13616;DHT22;6879;51.368;6.782;2023-03-14T06:29:14;9.50;99.90
13616;DHT22;6879;51.368;6.782;2023-03-14T06:31:43;9.50;99.90
13616;DHT22;6879;51.368;6.782;2023-03-14T06:34:14;9.50;99.90
13616;DHT22;6879;51.368;6.782;2023-03-14T06:36:43;9.50;99.90
13616;DHT22;6879;51.368;6.782;2023-03-14T06:39:12;9.60;99.90
13616;DHT22;6879;51.368;6.782;2023-03-14T06:41:46;9.60;99.90
13616;DHT22;6879;51.368;6.782;2023-03-14T06:44:15;9.60;99.90
13616;DHT22;6879;51.368;6.782;2023-03-14T06:46:44;9.60;99.90
13616;DHT22;6879;51.368;6.782;2023-03-14T06:49:13;9.70;99.90
13616;DHT22;6879;51.368;6.782;2023-03-14T06:51:42;9.70;99.90
13616;DHT22;6879;51.368;6.782;2023-03-14T06:54:11;9.70;99.90
13616;DHT22;6879;51.368;6.782;2023-03-14T06:56:40;9.70;99.90
13616;DHT22;6879;51.368;6.782;2023-03-14T06:59:11;9.80;99.90
13616;DHT22;6879;51.368;6.782;2023-03-14T07:01:41;9.80;99.90
13616;DHT22;6879;51.368;6.782;2023-03-14T07:04:11;9.90;99.90
13616;DHT22;6879;51.368;6.782;2023-03-14T07:06:44;9.90;99.90
13616;DHT22;6879;51.368;6.782;2023-03-14T07:09:13;10.00;99.90
13616;DHT22;6879;51.368;6.782;2023-03-14T07:11:51;10.10;99.90
13616;DHT22;6879;51.368;6.782;2023-03-14T07:14:22;10.20;99.90
13616;DHT22;6879;51.368;6.782;2023-03-14T07:16:50;10.20;99.90
13616;DHT22;6879;51.368;6.782;2023-03-14T07:19:19;10.20;99.90
13616;DHT22;6879;51.368;6.782;2023-03-14T07:21:48;10.20;99.90
13616;DHT22;6879;51.368;6.782;2023-03-14T07:24:21;10.20;99.90
13616;DHT22;6879;51.368;6.782;2023-03-14T07:26:50;10.30;99.90
13616;DHT22;6879;51.368;6.782;2023-03-14T07:29:18;10.30;99.90
13616;DHT22;6879;51.368;6.782;2023-03-14T07:31:51;10.30;99.90
13616;DHT22;6879;51.368;6.782;2023-03-14T07:34:20;10.30;99.90
13616;DHT22;6879;51.368;6.782;2023-03-14T07:36:49;10.30;99.90
13616;DHT22;6879;51.368;6.782;2023-03-14T07:39:18;10.30;99.90
13616;DHT22;6879;51.368;6.782;2023-03-14T07:42:09;10.30;99.90
13616;DHT22;6879;51.368;6.782;2023-03-14T07:44:56;10.30;99.90
13616;DHT22;6879;51.368;6.782;2023-03-14T07:47:27;10.30;99.90
13616;DHT22;6879;51.368;6.782;2023-03-14T07:49:55;10.30;99.90
13616;DHT22;6879;51.368;6.782;2023-03-14T07:52:24;10.30;99.90
13616;DHT22;6879;51.368;6.782;2023-03-14T07:54:52;10.30;99.90
13616;DHT22;6879;51.368;6.782;2023-03-14T07:57:21;10.30;99.90
13616;DHT22;6879;51.368;6.782;2023-03-14T07:59:51;10.30;99.90
13616;DHT22;6879;51.368;6.782;2023-03-14T08:02:19;10.20;99.90
13616;DHT22;6879;51.368;6.782;2023-03-14T08:04:51;10.20;99.90
13616;DHT22;6879;51.368;6.782;2023-03-14T08:07:20;10.30;99.90
13616;DHT22;6879;51.368;6.782;2023-03-14T08:09:48;10.30;99.90
13616;DHT22;6879;51.368;6.782;2023-03-14T08:12:17;10.40;99.90
13616;DHT22;6879;51.368;6.782;2023-03-14T08:14:45;10.50;99.90
13616;DHT22;6879;51.368;6.782;2023-03-14T08:17:15;10.60;99.90
13616;DHT22;6879;51.368;6.782;2023-03-14T08:19:44;10.60;99.90
13616;DHT22;6879;51.368;6.782;2023-03-14T08:22:14;10.60;99.90
13616;DHT22;6879;51.368;6.782;2023-03-14T08:24:46;10.70;99.90
13616;DHT22;6879;51.368;6.782;2023-03-14T08:27:14;10.70;99.90
13616;DHT22;6879;51.368;6.782;2023-03-14T08:29:43;10.70;99.90
13616;DHT22;6879;51.368;6.782;2023-03-14T08:32:11;10.70;99.90
13616;DHT22;6879;51.368;6.782;2023-03-14T08:34:40;10.80;99.90
13616;DHT22;6879;51.368;6.782;2023-03-14T08:37:09;10.70;99.90
13616;DHT22;6879;51.368;6.782;2023-03-14T08:39:54;10.60;99.90
13616;DHT22;6879;51.368;6.782;2023-03-14T10:09:04;8.30;99.90
13616;DHT22;6879;51.368;6.782;2023-03-14T10:12:55;8.40;99.90
13616;DHT22;6879;51.368;6.782;2023-03-14T10:28:24;8.20;99.90
13616;DHT22;6879;51.368;6.782;2023-03-14T10:30:57;8.00;99.90
13616;DHT22;6879;51.368;6.782;2023-03-14T10:33:32;8.00;99.90
13616;DHT22;6879;51.368;6.782;2023-03-14T10:41:14;7.90;99.90
13616;DHT22;6879;51.368;6.782;2023-03-14T10:44:50;7.80;99.90
13616;DHT22;6879;51.368;6.782;2023-03-14T10:48:49;7.60;99.90
13616;DHT22;6879;51.368;6.782;2023-03-14T10:54:31;7.60;99.90
13616;DHT22;6879;51.368;6.782;2023-03-14T10:57:21;7.40;99.90
13616;DHT22;6879;51.368;6.782;2023-03-14T14:09:57;12.90;87.50
13616;DHT22;6879;51.368;6.782;2023-03-14T14:13:03;14.00;83.80
13616;DHT22;6879;51.368;6.782;2023-03-14T14:16:06;14.30;83.90
13616;DHT22;6879;51.368;6.782;2023-03-14T14:19:36;14.10;82.30
13616;DHT22;6879;51.368;6.782;2023-03-14T14:22:52;14.60;79.00
13616;DHT22;6879;51.368;6.782;2023-03-14T14:25:38;13.20;78.10
13616;DHT22;6879;51.368;6.782;2023-03-14T14:28:44;13.60;75.30
13616;DHT22;6879;51.368;6.782;2023-03-14T14:31:37;13.60;72.90
13616;DHT22;6879;51.368;6.782;2023-03-14T14:35:31;12.90;74.60
13616;DHT22;6879;51.368;6.782;2023-03-14T14:38:42;11.80;75.70
13616;DHT22;6879;51.368;6.782;2023-03-14T15:35:51;9.70;75.70
13616;DHT22;6879;51.368;6.782;2023-03-14T15:38:22;9.30;75.90
13616;DHT22;6879;51.368;6.782;2023-03-14T15:41:06;9.00;75.30
13616;DHT22;6879;51.368;6.782;2023-03-14T15:43:44;8.80;74.90
13616;DHT22;6879;51.368;6.782;2023-03-14T15:46:14;8.90;75.60
13616;DHT22;6879;51.368;6.782;2023-03-14T15:48:59;9.10;75.40
13616;DHT22;6879;51.368;6.782;2023-03-14T15:56:18;8.80;75.40
13616;DHT22;6879;51.368;6.782;2023-03-14T15:58:52;8.80;76.10
13616;DHT22;6879;51.368;6.782;2023-03-14T16:01:44;8.80;76.50
13616;DHT22;6879;51.368;6.782;2023-03-14T16:04:52;8.80;76.60
13616;DHT22;6879;51.368;6.782;2023-03-14T16:07:37;8.70;76.60
13616;DHT22;6879;51.368;6.782;2023-03-14T16:37:59;8.20;76.40
13616;DHT22;6879;51.368;6.782;2023-03-14T16:40:44;8.10;76.60
13616;DHT22;6879;51.368;6.782;2023-03-14T16:43:48;7.90;77.40
13616;DHT22;6879;51.368;6.782;2023-03-14T16:46:22;7.80;77.80
13616;DHT22;6879;51.368;6.782;2023-03-14T16:48:59;7.60;77.80
13616;DHT22;6879;51.368;6.782;2023-03-14T16:51:37;7.60;78.30
13616;DHT22;6879;51.368;6.782;2023-03-14T16:54:14;7.50;77.60
13616;DHT22;6879;51.368;6.782;2023-03-14T16:56:48;7.40;76.30
13616;DHT22;6879;51.368;6.782;2023-03-14T16:59:28;7.40;76.50
13616;DHT22;6879;51.368;6.782;2023-03-14T17:01:57;7.40;77.30
13616;DHT22;6879;51.368;6.782;2023-03-14T17:04:26;7.40;77.70
13616;DHT22;6879;51.368;6.782;2023-03-14T17:07:13;7.30;77.30
13616;DHT22;6879;51.368;6.782;2023-03-14T17:09:47;7.30;77.40
13616;DHT22;6879;51.368;6.782;2023-03-14T17:12:15;7.20;76.70
13616;DHT22;6879;51.368;6.782;2023-03-14T17:14:44;7.20;76.80
13616;DHT22;6879;51.368;6.782;2023-03-14T17:17:13;7.20;77.40
13616;DHT22;6879;51.368;6.782;2023-03-14T17:19:42;7.20;77.80
13616;DHT22;6879;51.368;6.782;2023-03-14T17:22:16;7.20;78.70
13616;DHT22;6879;51.368;6.782;2023-03-14T17:24:59;7.10;80.10
13616;DHT22;6879;51.368;6.782;2023-03-14T17:27:28;7.10;81.50
13616;DHT22;6879;51.368;6.782;2023-03-14T17:29:57;7.00;81.00
13616;DHT22;6879;51.368;6.782;2023-03-14T17:32:45;7.00;81.10
13616;DHT22;6879;51.368;6.782;2023-03-14T17:35:21;7.00;79.60
13616;DHT22;6879;51.368;6.782;2023-03-14T17:37:50;6.90;79.30
13616;DHT22;6879;51.368;6.782;2023-03-14T17:40:35;6.80;79.40
13616;DHT22;6879;51.368;6.782;2023-03-14T17:43:18;6.70;79.00
13616;DHT22;6879;51.368;6.782;2023-03-14T17:45:58;6.70;78.90
13616;DHT22;6879;51.368;6.782;2023-03-14T17:48:28;6.60;79.00
13616;DHT22;6879;51.368;6.782;2023-03-14T17:51:02;6.60;79.20
13616;DHT22;6879;51.368;6.782;2023-03-14T17:53:36;6.50;79.50
13616;DHT22;6879;51.368;6.782;2023-03-14T17:56:07;6.50;79.60
13616;DHT22;6879;51.368;6.782;2023-03-14T17:58:36;6.40;79.80
13616;DHT22;6879;51.368;6.782;2023-03-14T18:01:09;6.40;79.90
13616;DHT22;6879;51.368;6.782;2023-03-14T18:03:38;6.40;80.10
13616;DHT22;6879;51.368;6.782;2023-03-14T18:06:09;6.40;80.30
13616;DHT22;6879;51.368;6.782;2023-03-14T18:08:39;6.40;80.70
13616;DHT22;6879;51.368;6.782;2023-03-14T18:11:10;6.30;80.70
13616;DHT22;6879;51.368;6.782;2023-03-14T18:13:39;6.30;81.10
13616;DHT22;6879;51.368;6.782;2023-03-14T18:16:10;6.30;81.60
13616;DHT22;6879;51.368;6.782;2023-03-14T18:18:41;6.30;81.80
13616;DHT22;6879;51.368;6.782;2023-03-14T18:21:14;6.30;81.80
13616;DHT22;6879;51.368;6.782;2023-03-14T18:23:43;6.20;81.90
13616;DHT22;6879;51.368;6.782;2023-03-14T18:26:13;6.20;82.30
13616;DHT22;6879;51.368;6.782;2023-03-14T18:28:42;6.10;82.70
13616;DHT22;6879;51.368;6.782;2023-03-14T18:31:12;6.10;82.60
13616;DHT22;6879;51.368;6.782;2023-03-14T18:33:45;6.10;82.70
13616;DHT22;6879;51.368;6.782;2023-03-14T18:36:14;6.00;83.00
13616;DHT22;6879;51.368;6.782;2023-03-14T18:38:43;6.00;83.10
13616;DHT22;6879;51.368;6.782;2023-03-14T18:41:17;5.90;83.40
13616;DHT22;6879;51.368;6.782;2023-03-14T18:46:41;5.90;84.00
13616;DHT22;6879;51.368;6.782;2023-03-14T18:49:14;5.80;84.40
13616;DHT22;6879;51.368;6.782;2023-03-14T18:51:50;5.70;84.90
13616;DHT22;6879;51.368;6.782;2023-03-14T18:54:26;5.70;84.50
13616;DHT22;6879;51.368;6.782;2023-03-14T18:57:02;5.60;84.60
13616;DHT22;6879;51.368;6.782;2023-03-14T18:59:37;5.60;84.40
13616;DHT22;6879;51.368;6.782;2023-03-14T19:05:12;5.60;84.30
13616;DHT22;6879;51.368;6.782;2023-03-14T19:07:48;5.60;84.30
13616;DHT22;6879;51.368;6.782;2023-03-14T19:10:21;5.60;84.80
13616;DHT22;6879;51.368;6.782;2023-03-14T19:12:58;5.60;85.20
13616;DHT22;6879;51.368;6.782;2023-03-14T19:15:32;5.50;85.70
13616;DHT22;6879;51.368;6.782;2023-03-14T19:18:06;5.50;86.10
13616;DHT22;6879;51.368;6.782;2023-03-14T19:20:56;5.50;86.30
13616;DHT22;6879;51.368;6.782;2023-03-14T19:23:36;5.40;86.70
13616;DHT22;6879;51.368;6.782;2023-03-14T19:26:09;5.40;86.70
13616;DHT22;6879;51.368;6.782;2023-03-14T19:28:44;5.40;86.60
13616;DHT22;6879;51.368;6.782;2023-03-14T19:31:12;5.40;86.80
13616;DHT22;6879;51.368;6.782;2023-03-14T19:33:41;5.40;87.00
13616;DHT22;6879;51.368;6.782;2023-03-14T19:36:19;5.40;87.20
13616;DHT22;6879;51.368;6.782;2023-03-14T19:38:49;5.30;87.50
13616;DHT22;6879;51.368;6.782;2023-03-14T19:41:19;5.20;87.70
13616;DHT22;6879;51.368;6.782;2023-03-14T19:43:50;5.20;87.90
13616;DHT22;6879;51.368;6.782;2023-03-14T19:46:19;5.20;88.00
13616;DHT22;6879;51.368;6.782;2023-03-14T19:48:49;5.20;88.10
13616;DHT22;6879;51.368;6.782;2023-03-14T19:51:21;5.20;88.40
13616;DHT22;6879;51.368;6.782;2023-03-14T19:53:50;5.00;88.70
13616;DHT22;6879;51.368;6.782;2023-03-14T19:56:19;5.00;89.10
13616;DHT22;6879;51.368;6.782;2023-03-14T19:58:51;5.00;89.30
13616;DHT22;6879;51.368;6.782;2023-03-14T20:01:20;4.90;89.50
13616;DHT22;6879;51.368;6.782;2023-03-14T20:03:50;4.80;89.90
13616;DHT22;6879;51.368;6.782;2023-03-14T20:06:19;4.80;89.70
13616;DHT22;6879;51.368;6.782;2023-03-14T20:08:48;4.90;89.30
13616;DHT22;6879;51.368;6.782;2023-03-14T20:11:17;5.00;89.10
13616;DHT22;6879;51.368;6.782;2023-03-14T20:17:28;4.80;89.50
13616;DHT22;6879;51.368;6.782;2023-03-14T20:20:09;4.60;90.20
13616;DHT22;6879;51.368;6.782;2023-03-14T20:23:41;4.60;90.40
13616;DHT22;6879;51.368;6.782;2023-03-14T20:31:14;4.40;91.20
13616;DHT22;6879;51.368;6.782;2023-03-14T20:34:04;4.50;91.10
13616;DHT22;6879;51.368;6.782;2023-03-14T20:36:39;4.50;90.70
13616;DHT22;6879;51.368;6.782;2023-03-14T20:39:24;4.40;90.80
13616;DHT22;6879;51.368;6.782;2023-03-14T20:42:52;4.30;91.20
13616;DHT22;6879;51.368;6.782;2023-03-14T20:45:31;4.20;91.60
13616;DHT22;6879;51.368;6.782;2023-03-14T20:48:30;4.00;92.10
13616;DHT22;6879;51.368;6.782;2023-03-14T20:51:01;3.80;92.70
13616;DHT22;6879;51.368;6.782;2023-03-14T20:53:30;3.80;93.40
13616;DHT22;6879;51.368;6.782;2023-03-14T20:55:59;3.60;93.70
13616;DHT22;6879;51.368;6.782;2023-03-14T20:58:28;3.50;94.00
13616;DHT22;6879;51.368;6.782;2023-03-14T21:00:57;3.40;95.00
13616;DHT22;6879;51.368;6.782;2023-03-14T21:03:26;3.30;95.30
13616;DHT22;6879;51.368;6.782;2023-03-14T21:05:54;3.30;95.80
13616;DHT22;6879;51.368;6.782;2023-03-14T21:08:28;3.30;95.60
13616;DHT22;6879;51.368;6.782;2023-03-14T21:10:57;3.30;95.70
13616;DHT22;6879;51.368;6.782;2023-03-14T21:13:25;3.30;95.90
13616;DHT22;6879;51.368;6.782;2023-03-14T21:16:07;3.30;95.90
13616;DHT22;6879;51.368;6.782;2023-03-14T21:18:42;3.30;96.10
13616;DHT22;6879;51.368;6.782;2023-03-14T21:21:54;3.20;96.40
13616;DHT22;6879;51.368;6.782;2023-03-14T21:27:04;3.00;97.00
13616;DHT22;6879;51.368;6.782;2023-03-14T21:29:32;3.00;97.20
13616;DHT22;6879;51.368;6.782;2023-03-14T21:32:03;2.90;97.30
13616;DHT22;6879;51.368;6.782;2023-03-14T21:34:32;2.90;97.30
13616;DHT22;6879;51.368;6.782;2023-03-14T21:37:17;2.90;97.50
13616;DHT22;6879;51.368;6.782;2023-03-14T21:39:49;2.80;97.60
13616;DHT22;6879;51.368;6.782;2023-03-14T21:42:28;2.70;98.00
13616;DHT22;6879;51.368;6.782;2023-03-14T21:44:57;2.60;98.30
13616;DHT22;6879;51.368;6.782;2023-03-14T21:47:26;2.50;98.70
13616;DHT22;6879;51.368;6.782;2023-03-14T21:49:55;2.60;98.90
13616;DHT22;6879;51.368;6.782;2023-03-14T21:52:23;2.60;98.90
13616;DHT22;6879;51.368;6.782;2023-03-14T21:54:54;2.60;98.80
13616;DHT22;6879;51.368;6.782;2023-03-14T21:57:23;2.60;98.50
13616;DHT22;6879;51.368;6.782;2023-03-14T21:59:56;2.60;98.50
13616;DHT22;6879;51.368;6.782;2023-03-14T22:02:24;2.70;98.30
13616;DHT22;6879;51.368;6.782;2023-03-14T22:04:53;2.70;98.20
13616;DHT22;6879;51.368;6.782;2023-03-14T22:07:36;2.80;98.20
13616;DHT22;6879;51.368;6.782;2023-03-14T22:10:15;2.80;98.10
13616;DHT22;6879;51.368;6.782;2023-03-14T22:12:52;2.80;98.20
13616;DHT22;6879;51.368;6.782;2023-03-14T22:15:23;2.90;98.00
13616;DHT22;6879;51.368;6.782;2023-03-14T22:17:53;2.90;98.00
13616;DHT22;6879;51.368;6.782;2023-03-14T22:20:24;3.10;97.90
13616;DHT22;6879;51.368;6.782;2023-03-14T22:22:53;3.20;97.70
13616;DHT22;6879;51.368;6.782;2023-03-14T22:25:23;3.20;97.70
13616;DHT22;6879;51.368;6.782;2023-03-14T22:28:00;3.20;97.60
13616;DHT22;6879;51.368;6.782;2023-03-14T22:30:31;3.20;97.80
13616;DHT22;6879;51.368;6.782;2023-03-14T22:33:00;3.30;97.70
13616;DHT22;6879;51.368;6.782;2023-03-14T22:35:52;3.30;97.60
13616;DHT22;6879;51.368;6.782;2023-03-14T22:38:21;3.30;97.70
13616;DHT22;6879;51.368;6.782;2023-03-14T22:40:57;3.40;97.70
13616;DHT22;6879;51.368;6.782;2023-03-14T22:43:54;3.40;97.50
13616;DHT22;6879;51.368;6.782;2023-03-14T22:46:23;3.40;97.70
13616;DHT22;6879;51.368;6.782;2023-03-14T22:49:04;3.50;97.40
13616;DHT22;6879;51.368;6.782;2023-03-14T22:51:33;3.60;97.30
13616;DHT22;6879;51.368;6.782;2023-03-14T22:54:40;3.60;97.00
13616;DHT22;6879;51.368;6.782;2023-03-14T22:57:34;3.60;97.00
13616;DHT22;6879;51.368;6.782;2023-03-14T23:00:05;3.50;97.20
13616;DHT22;6879;51.368;6.782;2023-03-14T23:02:38;3.50;97.30
13616;DHT22;6879;51.368;6.782;2023-03-14T23:05:08;3.40;97.60
13616;DHT22;6879;51.368;6.782;2023-03-14T23:07:36;3.40;97.70
13616;DHT22;6879;51.368;6.782;2023-03-14T23:10:06;3.40;97.80
13616;DHT22;6879;51.368;6.782;2023-03-14T23:12:36;3.40;97.90
13616;DHT22;6879;51.368;6.782;2023-03-14T23:15:06;3.40;98.00
13616;DHT22;6879;51.368;6.782;2023-03-14T23:17:35;3.50;98.00
13616;DHT22;6879;51.368;6.782;2023-03-14T23:20:04;3.50;98.20
13616;DHT22;6879;51.368;6.782;2023-03-14T23:22:33;3.60;98.20
13616;DHT22;6879;51.368;6.782;2023-03-14T23:25:02;3.60;98.20
13616;DHT22;6879;51.368;6.782;2023-03-14T23:27:31;3.70;98.10
13616;DHT22;6879;51.368;6.782;2023-03-14T23:30:01;3.70;98.00
13616;DHT22;6879;51.368;6.782;2023-03-14T23:32:31;3.70;98.10
13616;DHT22;6879;51.368;6.782;2023-03-14T23:34:59;3.70;98.20